KJEF/JEF METAR and TAF weather

Enter ICAO airport designator
Station Type Date Time Source
KJEF METAR 2023/02/05 20:53 UTC NOAA

KJEF 052053Z 28009G19KT 10SM CLR 17/M03 A3007 RMK AO2 SLP171 T01721033 55011 $


Station Type Date Time Source
KJEF Decoded METAR 2023/02/05 20:53 UTC NOAA

JEFFERSON CITY MEMORIAL AIRPORT , MO, United States (KJEF) 38-36N 92-09W 168M
Feb 05, 2023 - 03:53 PM EST / 2023.02.05 2053 UTC
Wind: from the W (280 degrees) at 10 MPH (9 KT) gusting to 22 MPH (19 KT):0
Visibility: 10 mile(s):0
Sky conditions: clear
Temperature: 63.0 F (17.2 C)
Dew Point: 26.1 F (-3.3 C)
Relative Humidity: 24%
Pressure (altimeter): 30.07 in. Hg (1018 hPa)
Pressure tendency: 0.03 inches (1.1 hPa) lower than three hours ago
ob: KJEF 052053Z 28009G19KT 10SM CLR 17/M03 A3007 RMK AO2 SLP171 T01721033 55011
cycle: 21

Station Type Date Time Source
KJEF TAF 2023/02/05 21:57 UTC NOAA

TAF
AMD KJEF 052055Z 0521/0618 27009G16KT P6SM FEW250
FM060000 VRB03KT P6SM SKC
FM061300 12008KT P6SM FEW250
FM061600 14010G18KT P6SM BKN250

Example: see airport list